createdAt,value
2024-01-17T00:02:36.015Z,92.83
2024-01-17T00:05:39.041Z,92.77
2024-01-17T00:08:42.059Z,92.16
2024-01-17T00:11:47.636Z,91.38
2024-01-17T00:14:52.264Z,90.82
2024-01-17T00:17:55.649Z,90.17
2024-01-17T00:20:58.796Z,89.34
2024-01-17T00:24:02.114Z,88.72
2024-01-17T00:27:06.289Z,89.10
2024-01-17T00:30:09.945Z,88.80
2024-01-17T00:33:13.200Z,88.98
2024-01-17T00:36:16.332Z,89.05
2024-01-17T00:39:20.070Z,88.33
2024-01-17T00:42:22.956Z,88.01
2024-01-17T00:45:25.818Z,87.90
2024-01-17T00:48:28.916Z,88.53
2024-01-17T00:51:35.943Z,88.97
2024-01-17T00:54:38.840Z,88.39
2024-01-17T00:57:41.901Z,86.76
2024-01-17T01:00:47.032Z,85.38
2024-01-17T01:03:51.616Z,86.39
2024-01-17T01:06:54.770Z,86.70
2024-01-17T01:09:58.206Z,86.30
2024-01-17T01:13:02.116Z,85.70
2024-01-17T01:16:05.492Z,85.94
2024-01-17T01:19:08.570Z,84.98
2024-01-17T01:22:11.489Z,85.65
2024-01-17T01:25:14.535Z,85.87
2024-01-17T01:28:17.561Z,87.01
2024-01-17T01:31:23.378Z,85.93
2024-01-17T01:34:26.277Z,86.17
2024-01-17T01:37:29.294Z,85.79
2024-01-17T01:40:32.156Z,86.23
2024-01-17T01:43:34.950Z,86.43
2024-01-17T01:46:38.174Z,86.40
2024-01-17T01:49:41.262Z,86.64
2024-01-17T01:52:49.586Z,86.70
2024-01-17T01:55:54.477Z,85.87
2024-01-17T01:58:59.134Z,86.19
2024-01-17T02:02:05.961Z,87.32
2024-01-17T02:05:10.442Z,87.49
2024-01-17T02:08:13.338Z,87.17
2024-01-17T02:11:16.483Z,86.26
2024-01-17T02:14:21.112Z,86.52
2024-01-17T02:17:24.123Z,85.72
2024-01-17T02:20:27.648Z,86.06
2024-01-17T02:23:30.707Z,85.63
2024-01-17T02:26:33.500Z,86.04
2024-01-17T02:29:36.591Z,85.60
2024-01-17T02:32:39.711Z,85.17
2024-01-17T02:35:43.397Z,85.57
2024-01-17T02:38:46.472Z,85.61
2024-01-17T02:41:49.413Z,85.61
2024-01-17T02:44:52.296Z,85.58
2024-01-17T02:47:55.285Z,85.48
2024-01-17T02:50:58.244Z,85.48
2024-01-17T02:54:01.348Z,84.48
2024-01-17T02:57:04.862Z,84.24
2024-01-17T03:00:09.853Z,83.97
2024-01-17T03:03:13.081Z,84.06
2024-01-17T03:06:18.079Z,84.59
2024-01-17T03:09:21.305Z,84.09
2024-01-17T03:12:25.951Z,85.11
2024-01-17T03:15:28.813Z,84.88
2024-01-17T03:18:31.880Z,84.83
2024-01-17T03:21:34.819Z,84.97
2024-01-17T03:24:38.649Z,85.06
2024-01-17T03:27:41.571Z,85.03
2024-01-17T03:30:44.766Z,85.14
2024-01-17T03:33:48.128Z,85.06
2024-01-17T03:36:51.269Z,85.05
2024-01-17T03:39:54.442Z,84.42
2024-01-17T03:42:57.386Z,84.33
2024-01-17T03:46:00.479Z,84.11
2024-01-17T03:49:04.360Z,83.95
2024-01-17T03:52:08.703Z,83.66
2024-01-17T03:55:11.762Z,84.04
2024-01-17T03:58:17.706Z,84.29
2024-01-17T04:01:20.696Z,84.58
2024-01-17T04:04:23.890Z,85.24
2024-01-17T04:07:26.901Z,84.94
2024-01-17T04:10:29.809Z,84.68
2024-01-17T04:13:32.724Z,83.73
2024-01-17T04:16:38.313Z,83.79
2024-01-17T04:19:42.511Z,84.09
2024-01-17T04:22:45.395Z,84.39
2024-01-17T04:25:48.262Z,84.32
2024-01-17T04:28:51.826Z,84.64
2024-01-17T04:31:54.770Z,84.81
2024-01-17T04:34:57.733Z,85.13
2024-01-17T04:38:00.599Z,85.48
2024-01-17T04:41:04.231Z,85.58
2024-01-17T04:44:07.130Z,85.03
2024-01-17T04:47:10.076Z,85.52
2024-01-17T04:50:13.889Z,85.66
2024-01-17T04:53:16.910Z,85.12
2024-01-17T04:56:20.026Z,85.40
2024-01-17T04:59:23.280Z,84.84
2024-01-17T05:02:26.425Z,85.01
2024-01-17T05:05:29.422Z,84.77
2024-01-17T05:08:32.317Z,85.04
2024-01-17T05:11:35.392Z,85.38
2024-01-17T05:14:38.486Z,85.06
2024-01-17T05:17:41.648Z,84.92
2024-01-17T05:20:44.979Z,84.68
2024-01-17T05:23:48.000Z,84.69
2024-01-17T05:26:50.833Z,85.52
2024-01-17T05:29:53.771Z,85.14
2024-01-17T05:32:57.067Z,85.02
2024-01-17T05:36:00.370Z,84.72
2024-01-17T05:39:04.620Z,85.11
2024-01-17T05:42:08.411Z,85.16
2024-01-17T05:45:11.839Z,85.42
2024-01-17T05:48:15.061Z,85.72
2024-01-17T05:51:18.065Z,85.59
2024-01-17T05:54:21.122Z,85.39
2024-01-17T05:57:24.215Z,85.90
2024-01-17T06:00:27.232Z,86.18
2024-01-17T06:03:30.431Z,86.37
2024-01-17T06:06:33.398Z,86.64
2024-01-17T06:09:36.444Z,86.02
2024-01-17T06:12:42.898Z,86.62
2024-01-17T06:15:46.200Z,86.85
2024-01-17T06:18:49.731Z,86.69
2024-01-17T06:21:52.753Z,87.69
2024-01-17T06:24:55.774Z,87.41
2024-01-17T06:27:58.867Z,87.30
2024-01-17T06:31:02.109Z,87.60
2024-01-17T06:34:05.515Z,87.02
2024-01-17T06:37:08.781Z,87.42
2024-01-17T06:40:12.472Z,87.22
2024-01-17T06:43:15.652Z,87.26
2024-01-17T06:46:18.636Z,86.90
2024-01-17T06:49:21.706Z,86.81
2024-01-17T06:52:24.844Z,87.11
2024-01-17T06:55:27.767Z,86.86
2024-01-17T06:58:30.938Z,86.83
2024-01-17T07:01:36.368Z,87.15
2024-01-17T07:04:44.628Z,87.19
2024-01-17T07:08:09.004Z,86.74
2024-01-17T07:11:47.041Z,86.81
2024-01-17T07:15:00.673Z,86.91
2024-01-17T07:18:04.698Z,87.23
2024-01-17T07:21:08.777Z,86.54
2024-01-17T07:24:14.032Z,86.22
2024-01-17T07:27:17.169Z,86.05
2024-01-17T07:30:25.466Z,86.00
2024-01-17T07:33:33.583Z,86.46
2024-01-17T07:36:36.771Z,86.50
2024-01-17T07:39:44.812Z,86.82
2024-01-17T07:42:48.371Z,86.56
2024-01-17T07:45:52.043Z,85.01
2024-01-17T07:48:55.609Z,85.76
2024-01-17T07:52:01.361Z,85.43
2024-01-17T07:55:08.984Z,86.07
2024-01-17T07:58:13.228Z,85.96
2024-01-17T08:01:16.661Z,85.96
2024-01-17T08:04:19.709Z,86.49
2024-01-17T08:07:26.297Z,86.13
2024-01-17T08:10:30.325Z,85.81
2024-01-17T08:13:35.345Z,86.21
2024-01-17T08:16:38.350Z,85.41
2024-01-17T08:19:41.723Z,86.62
2024-01-17T08:22:45.033Z,87.28
2024-01-17T08:25:48.400Z,86.76
2024-01-17T08:28:56.768Z,86.25
2024-01-17T08:31:59.755Z,85.97
2024-01-17T08:35:04.010Z,86.70
2024-01-17T08:38:07.236Z,86.46
2024-01-17T08:41:10.805Z,86.67
2024-01-17T08:44:15.032Z,86.83
2024-01-17T08:47:19.069Z,86.30
2024-01-17T08:50:22.098Z,86.43
2024-01-17T08:53:25.301Z,86.65
2024-01-17T08:56:28.168Z,85.93
2024-01-17T08:59:34.815Z,86.07
2024-01-17T09:02:38.208Z,86.48
2024-01-17T09:05:41.443Z,85.90
2024-01-17T09:08:44.422Z,85.64
2024-01-17T09:11:47.700Z,84.70
2024-01-17T09:14:51.495Z,84.93
2024-01-17T09:17:54.514Z,84.68
2024-01-17T09:20:57.835Z,84.13
2024-01-17T09:24:00.983Z,84.19
2024-01-17T09:27:04.923Z,84.10
2024-01-17T09:30:08.703Z,84.08
2024-01-17T09:33:11.917Z,84.04
2024-01-17T09:36:15.484Z,83.85
2024-01-17T09:39:21.710Z,83.16
2024-01-17T09:42:25.826Z,83.70
2024-01-17T09:45:31.312Z,85.40
2024-01-17T09:48:34.363Z,85.23
2024-01-17T09:51:42.466Z,85.13
2024-01-17T09:54:47.738Z,85.14
2024-01-17T09:58:05.453Z,84.79
2024-01-17T10:01:16.609Z,84.82
2024-01-17T10:04:26.016Z,84.90
2024-01-17T10:07:29.734Z,84.60
2024-01-17T10:10:33.497Z,84.25
2024-01-17T10:13:36.460Z,83.65
2024-01-17T10:16:39.494Z,84.09
2024-01-17T10:19:43.099Z,83.83
2024-01-17T10:22:47.380Z,82.59
2024-01-17T10:25:50.419Z,83.13
2024-01-17T10:28:56.182Z,82.00
2024-01-17T10:32:02.945Z,81.57
2024-01-17T10:35:08.193Z,81.70
2024-01-17T10:38:11.975Z,80.87
2024-01-17T10:41:15.826Z,80.51
2024-01-17T10:44:20.030Z,80.78
2024-01-17T10:47:24.010Z,80.56
2024-01-17T10:50:27.212Z,80.97
2024-01-17T10:53:44.225Z,81.41
2024-01-17T10:56:55.589Z,81.36
2024-01-17T11:00:05.586Z,81.29
2024-01-17T11:03:20.446Z,80.99
2024-01-17T11:06:25.334Z,80.98
2024-01-17T11:09:28.905Z,82.26
2024-01-17T11:12:43.129Z,81.47
2024-01-17T11:15:47.926Z,81.67
2024-01-17T11:18:51.875Z,81.63
2024-01-17T11:21:55.826Z,80.91
2024-01-17T11:25:17.639Z,81.99
2024-01-17T11:28:29.846Z,81.82
2024-01-17T11:31:55.673Z,81.96
2024-01-17T11:34:58.702Z,81.55
2024-01-17T11:38:03.949Z,81.98
2024-01-17T11:41:10.846Z,81.20
2024-01-17T11:44:15.935Z,81.34
2024-01-17T11:47:22.121Z,81.68
2024-01-17T11:50:25.269Z,81.98
2024-01-17T11:53:32.756Z,82.05
2024-01-17T11:56:36.426Z,82.20
2024-01-17T11:59:41.700Z,81.73
2024-01-17T12:02:46.340Z,81.63
2024-01-17T12:05:49.526Z,81.74
2024-01-17T12:08:58.128Z,81.81
2024-01-17T12:12:03.217Z,82.01
2024-01-17T12:15:07.199Z,82.52
2024-01-17T12:18:21.470Z,82.14
2024-01-17T12:21:25.038Z,82.24
2024-01-17T12:24:38.926Z,82.65
2024-01-17T12:27:56.769Z,82.58
2024-01-17T12:31:01.532Z,82.16
2024-01-17T12:34:06.722Z,82.25
2024-01-17T12:37:09.796Z,81.56
2024-01-17T12:40:12.731Z,81.21
2024-01-17T12:43:17.438Z,80.99
2024-01-17T12:46:22.002Z,80.90
2024-01-17T12:49:31.177Z,81.32
2024-01-17T12:52:37.712Z,81.55
2024-01-17T12:55:49.550Z,81.80
2024-01-17T12:58:53.728Z,81.46
2024-01-17T13:02:00.110Z,81.08
2024-01-17T13:05:10.692Z,81.87
2024-01-17T13:08:17.035Z,82.23
2024-01-17T13:11:20.333Z,82.63
2024-01-17T13:14:25.152Z,82.94
2024-01-17T13:17:28.761Z,82.57
2024-01-17T13:20:31.826Z,82.37
2024-01-17T13:23:35.454Z,82.74
2024-01-17T13:26:42.342Z,83.46
2024-01-17T13:29:48.078Z,83.04
2024-01-17T13:32:51.229Z,83.13
2024-01-17T13:35:55.911Z,83.43
2024-01-17T13:38:58.923Z,83.07
2024-01-17T13:42:06.906Z,83.20
2024-01-17T13:45:11.963Z,83.26
2024-01-17T13:48:15.078Z,83.55
2024-01-17T13:51:18.503Z,84.16
2024-01-17T13:54:21.571Z,85.13
2024-01-17T13:57:24.519Z,85.05
2024-01-17T14:00:27.650Z,85.58
2024-01-17T14:03:32.826Z,86.45
2024-01-17T14:06:36.630Z,87.02
2024-01-17T14:09:40.436Z,87.01
2024-01-17T14:12:48.674Z,87.59
2024-01-17T14:15:51.964Z,87.77
2024-01-17T14:18:54.976Z,90.05
2024-01-17T14:21:57.870Z,89.67
2024-01-17T14:25:01.091Z,90.66
2024-01-17T14:28:07.227Z,89.86
2024-01-17T14:31:10.374Z,90.06
2024-01-17T14:34:17.947Z,92.53
2024-01-17T14:37:20.943Z,91.84
2024-01-17T14:40:23.894Z,92.34
2024-01-17T14:43:27.900Z,93.68
2024-01-17T14:46:34.813Z,93.20
2024-01-17T14:49:37.706Z,94.00
2024-01-17T14:52:41.358Z,93.82
2024-01-17T14:55:44.534Z,94.14
2024-01-17T14:58:47.520Z,94.69
2024-01-17T15:01:50.765Z,94.61
2024-01-17T15:04:56.465Z,95.56
2024-01-17T15:07:59.915Z,96.37
2024-01-17T15:11:02.946Z,96.22
2024-01-17T15:14:05.861Z,97.75
2024-01-17T15:17:08.815Z,97.91
2024-01-17T15:20:12.852Z,97.84
2024-01-17T15:23:15.784Z,98.24
2024-01-17T15:26:18.768Z,98.77
2024-01-17T15:29:21.702Z,98.82
2024-01-17T15:32:24.789Z,98.01
2024-01-17T15:35:27.856Z,98.51
2024-01-17T15:38:31.588Z,98.67
2024-01-17T15:41:36.124Z,98.77
2024-01-17T15:44:41.869Z,99.24
2024-01-17T15:47:46.179Z,98.70
2024-01-17T15:50:49.321Z,99.59
2024-01-17T15:53:52.416Z,99.41
2024-01-17T15:56:55.483Z,99.33
2024-01-17T15:59:58.689Z,99.83
2024-01-17T16:03:01.781Z,100.00
2024-01-17T16:06:06.131Z,100.00
2024-01-17T16:09:12.864Z,100.00
2024-01-17T16:12:17.026Z,100.00
2024-01-17T16:15:20.237Z,99.71
2024-01-17T16:18:23.228Z,99.01
2024-01-17T16:21:26.418Z,100.00
2024-01-17T16:24:29.292Z,99.62
2024-01-17T16:27:32.294Z,98.90
2024-01-17T16:30:35.106Z,98.85
2024-01-17T16:33:38.618Z,99.19
2024-01-17T16:36:41.725Z,98.87
2024-01-17T16:39:44.608Z,99.30
2024-01-17T16:42:47.490Z,98.51
2024-01-17T16:45:50.700Z,98.56
2024-01-17T16:48:53.753Z,98.41
2024-01-17T16:51:58.658Z,98.63
2024-01-17T16:55:01.630Z,98.88
2024-01-17T16:58:04.743Z,98.08
2024-01-17T17:01:08.994Z,97.76
2024-01-17T17:04:12.041Z,97.98
2024-01-17T17:07:14.930Z,98.06
2024-01-17T17:10:17.871Z,98.02
2024-01-17T17:13:20.779Z,98.92
2024-01-17T17:16:24.138Z,98.64
2024-01-17T17:19:26.996Z,99.09
2024-01-17T17:22:37.163Z,100.00
2024-01-17T17:25:42.394Z,100.00
2024-01-17T17:28:48.561Z,100.00
2024-01-17T17:31:51.704Z,100.00
2024-01-17T17:34:54.663Z,99.52
2024-01-17T17:37:58.487Z,99.00
2024-01-17T17:41:01.501Z,99.42
2024-01-17T17:44:04.732Z,99.63
2024-01-17T17:47:07.738Z,99.85
2024-01-17T17:50:14.966Z,100.00
2024-01-17T17:53:18.834Z,99.96
2024-01-17T17:56:29.143Z,100.00
2024-01-17T17:59:32.211Z,99.81
2024-01-17T18:02:35.783Z,99.74
2024-01-17T18:05:41.579Z,99.37
2024-01-17T18:08:47.984Z,99.95
2024-01-17T18:11:51.127Z,99.93
2024-01-17T18:14:54.199Z,99.81
2024-01-17T18:17:57.173Z,99.23
2024-01-17T18:21:02.093Z,99.29
2024-01-17T18:24:05.435Z,99.65
2024-01-17T18:27:08.510Z,98.95
2024-01-17T18:30:12.109Z,99.80
2024-01-17T18:33:15.066Z,100.00
2024-01-17T18:36:18.076Z,100.00
2024-01-17T18:39:21.207Z,100.00
2024-01-17T18:42:24.467Z,99.87
2024-01-17T18:45:27.382Z,100.00
2024-01-17T18:48:30.370Z,100.00
2024-01-17T18:51:33.422Z,100.00
2024-01-17T18:54:36.462Z,100.00
2024-01-17T18:57:39.442Z,100.00
2024-01-17T19:00:42.666Z,100.00
2024-01-17T19:03:46.067Z,99.72
2024-01-17T19:06:49.393Z,99.44
2024-01-17T19:09:52.327Z,100.00
2024-01-17T19:12:55.245Z,99.76
2024-01-17T19:15:58.030Z,99.56
2024-01-17T19:19:01.836Z,99.75
2024-01-17T19:22:05.126Z,99.63
2024-01-17T19:25:11.699Z,100.00
2024-01-17T19:28:15.232Z,100.00
2024-01-17T19:31:18.227Z,100.00
2024-01-17T19:34:21.132Z,100.00
2024-01-17T19:37:24.091Z,100.00
2024-01-17T19:40:27.036Z,100.00
2024-01-17T19:43:29.953Z,100.00
2024-01-17T19:46:32.869Z,100.00
2024-01-17T19:49:37.762Z,100.00
2024-01-17T19:52:40.720Z,100.00
2024-01-17T19:55:43.577Z,100.00
2024-01-17T19:58:47.636Z,100.00
2024-01-17T20:01:50.501Z,100.00
2024-01-17T20:04:53.528Z,100.00
2024-01-17T20:07:56.737Z,100.00
2024-01-17T20:11:04.737Z,100.00
2024-01-17T20:14:07.829Z,100.00
2024-01-17T20:17:10.638Z,100.00
2024-01-17T20:20:13.605Z,100.00
2024-01-17T20:23:16.468Z,100.00
2024-01-17T20:26:21.490Z,99.94
2024-01-17T20:29:24.359Z,100.00
2024-01-17T20:32:27.287Z,100.00
2024-01-17T20:35:30.262Z,99.85
2024-01-17T20:38:33.039Z,99.45
2024-01-17T20:41:36.058Z,99.11
2024-01-17T20:44:39.012Z,99.58
2024-01-17T20:47:42.675Z,98.97
2024-01-17T20:50:45.684Z,99.57
2024-01-17T20:53:48.721Z,99.13
2024-01-17T20:56:54.277Z,99.19
2024-01-17T20:59:57.182Z,99.58
2024-01-17T21:03:00.291Z,99.92
2024-01-17T21:06:03.441Z,100.00
2024-01-17T21:09:07.323Z,100.00
2024-01-17T21:12:10.352Z,100.00
2024-01-17T21:15:13.496Z,100.00
2024-01-17T21:18:16.525Z,100.00
2024-01-17T21:21:19.475Z,100.00
2024-01-17T21:24:24.728Z,99.18
2024-01-17T21:27:30.194Z,99.53
2024-01-17T21:30:33.188Z,99.80
2024-01-17T21:33:36.398Z,99.64
2024-01-17T21:36:40.466Z,99.85
2024-01-17T21:39:43.570Z,99.71
2024-01-17T21:42:46.500Z,99.42
2024-01-17T21:45:49.448Z,99.84
2024-01-17T21:48:56.441Z,99.86
2024-01-17T21:52:02.534Z,99.83
2024-01-17T21:55:06.289Z,100.00
2024-01-17T21:58:09.387Z,100.00
2024-01-17T22:01:13.092Z,100.00
2024-01-17T22:04:16.933Z,100.00
2024-01-17T22:07:19.798Z,100.00
2024-01-17T22:10:22.751Z,100.00
2024-01-17T22:13:26.303Z,100.00
2024-01-17T22:16:29.193Z,100.00
2024-01-17T22:19:32.238Z,100.00
2024-01-17T22:22:35.162Z,100.00
2024-01-17T22:25:38.150Z,100.00
2024-01-17T22:28:41.148Z,100.00
2024-01-17T22:31:44.172Z,100.00
2024-01-17T22:34:47.203Z,100.00
2024-01-17T22:37:50.158Z,100.00
2024-01-17T22:40:52.962Z,100.00
2024-01-17T22:43:55.858Z,100.00
2024-01-17T22:46:58.716Z,100.00
2024-01-17T22:50:01.767Z,100.00
2024-01-17T22:53:05.272Z,100.00
2024-01-17T22:56:09.258Z,100.00
2024-01-17T22:59:12.172Z,100.00
2024-01-17T23:02:15.912Z,100.00
2024-01-17T23:05:20.119Z,100.00
2024-01-17T23:08:23.840Z,100.00
2024-01-17T23:11:27.077Z,100.00
2024-01-17T23:14:30.006Z,100.00
2024-01-17T23:17:33.161Z,99.99
2024-01-17T23:20:36.131Z,100.00
2024-01-17T23:23:39.019Z,100.00
2024-01-17T23:26:41.803Z,99.85
2024-01-17T23:29:44.613Z,99.98
2024-01-17T23:32:47.581Z,100.00
2024-01-17T23:35:50.417Z,100.00
2024-01-17T23:38:54.096Z,100.00
2024-01-17T23:41:57.081Z,100.00
2024-01-17T23:45:00.252Z,100.00
2024-01-17T23:48:03.479Z,100.00
2024-01-17T23:51:06.583Z,100.00
2024-01-17T23:54:09.518Z,100.00
2024-01-17T23:57:12.563Z,100.00
